Time;durP1;ratioP1;P1;durP2;ratioP2;P2;SDS_P1;SDS_P2;PMS_P1;PMS_P2;Temp;Humidity;BMP_temperature;BMP_pressure;BME280_temperature;BME280_humidity;BME280_pressure;Samples;Min_cycle;Max_cycle;Signal;HPM_P1;HPM_P2
2022/03/12 00:00:30;;;;;;;3.70;2.87;;;5.10;39.40;5.00;96607.00;;;;5074175;28;20212;-82
2022/03/12 00:02:58;;;;;;;3.10;2.80;;;5.10;39.60;5.00;96600.00;;;;5075978;28;20199;-80
2022/03/12 00:05:26;;;;;;;3.30;3.00;;;5.10;39.70;5.00;96610.00;;;;5081978;28;20244;-83
2022/03/12 00:07:54;;;;;;;3.13;2.77;;;5.10;39.80;4.90;96606.00;;;;5076536;28;20253;-80
2022/03/12 00:10:23;;;;;;;3.00;2.80;;;5.10;39.80;4.90;96598.00;;;;5074049;28;20214;-81
2022/03/12 00:12:51;;;;;;;4.57;3.40;;;5.10;39.80;4.90;96605.00;;;;5074580;28;20299;-82
2022/03/12 00:15:18;;;;;;;3.27;2.53;;;5.00;39.70;4.90;96618.00;;;;5074564;28;20188;-82
2022/03/12 00:17:45;;;;;;;3.57;3.27;;;5.00;39.80;4.90;96617.00;;;;5063991;28;20200;-83
2022/03/12 00:20:18;;;;;;;5.07;3.43;;;5.00;39.80;4.90;96611.00;;;;5067992;28;20591;-84
2022/03/12 00:22:50;;;;;;;5.80;3.27;;;5.00;39.80;4.90;96618.00;;;;5075652;28;20611;-84
2022/03/12 00:25:19;;;;;;;2.80;2.50;;;5.00;39.80;4.90;96619.00;;;;5076541;28;20239;-82
2022/03/12 00:27:46;;;;;;;3.43;3.10;;;5.00;39.90;4.80;96619.00;;;;5076389;28;20188;-82
2022/03/12 00:30:19;;;;;;;3.10;2.77;;;5.00;39.90;4.80;96623.00;;;;5075977;28;20472;-82
2022/03/12 00:32:48;;;;;;;4.27;3.00;;;5.00;39.90;4.80;96635.00;;;;5076249;28;20200;-82
2022/03/12 00:35:18;;;;;;;3.53;3.23;;;5.00;39.80;4.80;96627.00;;;;5075126;28;20458;-82
2022/03/12 00:37:45;;;;;;;3.33;3.03;;;4.90;39.90;4.80;96629.00;;;;5075735;28;20426;-82
2022/03/12 00:40:15;;;;;;;3.77;3.10;;;4.90;39.90;4.80;96629.00;;;;5075817;28;20478;-82
2022/03/12 00:42:44;;;;;;;3.93;3.00;;;4.90;39.80;4.80;96627.00;;;;5075287;28;20241;-82
2022/03/12 00:45:12;;;;;;;3.53;3.20;;;4.90;40.00;4.80;96630.00;;;;5075226;28;20246;-82
2022/03/12 00:47:39;;;;;;;3.50;2.67;;;4.90;40.10;4.80;96635.00;;;;5075064;28;20222;-82
2022/03/12 00:50:08;;;;;;;3.77;3.23;;;4.90;40.10;4.80;96638.00;;;;5075252;28;20207;-82
2022/03/12 00:52:36;;;;;;;3.13;2.83;;;4.90;40.20;4.70;96637.00;;;;5076101;28;20212;-82
2022/03/12 00:55:05;;;;;;;3.37;2.93;;;4.90;40.10;4.70;96639.00;;;;5074936;28;20212;-83
2022/03/12 00:57:32;;;;;;;3.03;2.73;;;4.80;40.10;4.70;96641.00;;;;5075173;28;20623;-83
2022/03/12 00:59:59;;;;;;;3.70;2.87;;;4.80;40.10;4.70;96634.00;;;;5071307;28;20914;-82
2022/03/12 01:02:26;;;;;;;4.13;3.30;;;4.80;40.10;4.70;96640.00;;;;5072782;28;20504;-80
2022/03/12 01:04:53;;;;;;;3.47;3.17;;;4.80;40.10;4.60;96642.00;;;;5072781;28;20262;-81
2022/03/12 01:07:21;;;;;;;3.40;2.70;;;4.80;40.20;4.60;96646.00;;;;5073166;28;20569;-81
2022/03/12 01:09:49;;;;;;;3.13;2.83;;;4.80;40.20;4.60;96643.00;;;;5073345;28;20200;-81
2022/03/12 01:12:17;;;;;;;4.23;2.90;;;4.70;40.10;4.60;96645.00;;;;5072624;28;20438;-81
2022/03/12 01:14:44;;;;;;;3.53;3.20;;;4.70;40.10;4.60;96638.00;;;;5072413;28;20266;-81
2022/03/12 01:17:11;;;;;;;3.83;2.73;;;4.70;40.10;4.60;96637.00;;;;5072996;28;20525;-81
2022/03/12 01:19:38;;;;;;;3.10;2.80;;;4.70;40.10;4.50;96640.00;;;;5072412;28;20521;-81
2022/03/12 01:22:07;;;;;;;3.40;3.10;;;4.70;40.10;4.50;96632.00;;;;5072718;28;20438;-81
2022/03/12 01:24:35;;;;;;;3.23;2.93;;;4.70;40.20;4.50;96635.00;;;;5076330;28;20825;-81
2022/03/12 01:27:04;;;;;;;3.40;3.10;;;4.60;40.20;4.50;96632.00;;;;5076231;28;20440;-80
2022/03/12 01:29:31;;;;;;;3.27;2.93;;;4.60;40.30;4.50;96637.00;;;;5075729;28;20533;-80
2022/03/12 01:31:58;;;;;;;3.83;3.43;;;4.60;40.30;4.40;96630.00;;;;5076554;28;20604;-80
2022/03/12 01:34:25;;;;;;;3.30;3.00;;;4.60;40.30;4.40;96629.00;;;;5076459;28;20326;-80
2022/03/12 01:36:53;;;;;;;3.30;3.00;;;4.60;40.40;4.40;96634.00;;;;5076543;28;20538;-80
2022/03/12 01:39:20;;;;;;;3.30;2.70;;;4.50;40.40;4.40;96635.00;;;;5076455;28;20477;-81
2022/03/12 01:41:47;;;;;;;3.20;2.90;;;4.60;40.50;4.40;96630.00;;;;5076933;28;20549;-81
2022/03/12 01:44:16;;;;;;;4.30;3.53;;;4.50;40.60;4.30;96623.00;;;;5076342;28;20553;-81
2022/03/12 01:46:46;;;;;;;3.00;2.63;;;4.50;40.70;4.30;96639.00;;;;5076797;28;20499;-81
2022/03/12 01:49:18;;;;;;;3.17;2.83;;;4.50;40.80;4.30;96641.00;;;;5076176;28;20883;-81
2022/03/12 01:51:48;;;;;;;3.03;2.73;;;4.50;40.80;4.30;96629.00;;;;5070387;28;20450;-81
2022/03/12 01:54:25;;;;;;;3.87;3.07;;;4.40;40.70;4.30;96628.00;;;;5076274;28;20830;-81
2022/03/12 01:56:54;;;;;;;3.53;3.23;;;4.40;40.90;4.20;96632.00;;;;5076393;28;20683;-81
2022/03/12 01:59:23;;;;;;;3.43;2.93;;;4.30;40.90;4.20;96633.00;;;;5076977;28;20996;-81
2022/03/12 02:01:52;;;;;;;3.77;3.07;;;4.40;41.00;4.20;96641.00;;;;5071550;28;20451;-81
2022/03/12 02:04:22;;;;;;;3.60;3.30;;;4.40;41.00;4.20;96628.00;;;;5064153;28;20466;-81
2022/03/12 02:06:50;;;;;;;3.37;3.07;;;4.30;40.90;4.20;96628.00;;;;5070829;28;20537;-81
2022/03/12 02:09:19;;;;;;;3.47;3.17;;;4.30;40.90;4.20;96620.00;;;;5081496;28;20942;-81
2022/03/12 02:11:51;;;;;;;3.53;3.23;;;4.30;40.90;4.20;96617.00;;;;5086093;28;20476;-81
2022/03/12 02:14:22;;;;;;;4.93;3.47;;;4.30;40.90;4.10;96618.00;;;;5075404;28;20945;-81
2022/03/12 02:16:53;;;;;;;3.90;3.10;;;4.20;40.90;4.10;96617.00;;;;5070414;28;20462;-81
2022/03/12 02:19:23;;;;;;;3.47;2.87;;;4.30;41.00;4.10;96618.00;;;;5067995;28;20478;-80
2022/03/12 02:21:54;;;;;;;3.43;3.07;;;4.30;41.10;4.10;96621.00;;;;5068748;28;20485;-81
2022/03/12 02:24:24;;;;;;;3.43;2.97;;;4.20;41.20;4.10;96618.00;;;;5065136;28;20502;-80
2022/03/12 02:26:54;;;;;;;3.53;3.23;;;4.20;41.20;4.10;96614.00;;;;5062357;28;20450;-80
2022/03/12 02:29:24;;;;;;;3.90;3.07;;;4.20;41.10;4.10;96606.00;;;;5069877;28;20454;-80
2022/03/12 02:31:56;;;;;;;4.03;3.07;;;4.20;41.10;4.10;96611.00;;;;5065680;28;20453;-79
2022/03/12 02:34:30;;;;;;;3.40;3.10;;;4.20;41.20;4.10;96605.00;;;;5064911;28;20871;-80
2022/03/12 02:36:58;;;;;;;3.20;2.90;;;4.20;41.30;4.00;96608.00;;;;5067850;28;20497;-80
2022/03/12 02:39:27;;;;;;;6.27;3.40;;;4.20;41.40;4.00;96612.00;;;;5073704;28;20555;-80
2022/03/12 02:41:56;;;;;;;3.80;3.27;;;4.20;41.40;4.00;96602.00;;;;5076100;28;20944;-80
2022/03/12 02:44:27;;;;;;;3.90;3.50;;;4.20;41.50;4.00;96606.00;;;;5074640;28;21100;-80
2022/03/12 02:47:14;;;;;;;3.40;3.10;;;4.20;41.50;4.00;96601.00;;;;5074701;28;20445;-80
2022/03/12 02:49:48;;;;;;;3.47;3.10;;;4.20;41.60;4.00;96605.00;;;;5070354;28;20459;-80
2022/03/12 02:52:16;;;;;;;3.50;3.20;;;4.10;41.50;4.00;96611.00;;;;5073915;28;20449;-80
2022/03/12 02:54:47;;;;;;;3.87;3.50;;;4.10;41.60;4.00;96609.00;;;;5073838;28;20461;-80
2022/03/12 02:57:16;;;;;;;4.70;3.10;;;4.10;41.70;3.90;96609.00;;;;5073386;28;20470;-80
2022/03/12 02:59:44;;;;;;;3.00;2.70;;;4.10;41.60;3.90;96624.00;;;;5072712;28;20518;-80
2022/03/12 03:02:13;;;;;;;3.80;3.37;;;4.10;41.60;3.90;96630.00;;;;5062977;28;21053;-81
2022/03/12 03:04:41;;;;;;;3.90;3.43;;;4.00;41.50;3.90;96624.00;;;;5054112;28;20534;-80
2022/03/12 03:07:10;;;;;;;3.43;3.00;;;4.10;41.60;3.90;96628.00;;;;5068164;28;20521;-79
2022/03/12 03:09:38;;;;;;;3.27;2.97;;;4.00;41.60;3.90;96626.00;;;;5073833;28;20448;-80
2022/03/12 03:12:10;;;;;;;3.40;2.97;;;4.00;41.60;3.90;96634.00;;;;5074280;28;20466;-79
2022/03/12 03:14:41;;;;;;;3.73;3.17;;;4.10;41.80;3.90;96633.00;;;;5072350;28;20472;-80
2022/03/12 03:17:12;;;;;;;4.20;3.03;;;3.90;41.70;3.90;96628.00;;;;5073849;28;20446;-80
2022/03/12 03:19:40;;;;;;;3.17;2.83;;;4.10;41.90;3.90;96631.00;;;;5073119;28;20485;-79
2022/03/12 03:22:09;;;;;;;3.77;2.60;;;4.00;42.00;3.90;96631.00;;;;5074175;28;20575;-79
2022/03/12 03:24:36;;;;;;;3.80;3.20;;;4.00;42.00;3.90;96634.00;;;;5073705;28;20491;-80
2022/03/12 03:27:04;;;;;;;4.80;3.13;;;4.10;42.10;3.90;96635.00;;;;5073863;28;20430;-80
2022/03/12 03:29:34;;;;;;;3.37;3.07;;;4.00;42.10;3.90;96640.00;;;;5073166;28;20438;-79
2022/03/12 03:32:02;;;;;;;3.43;2.90;;;4.00;42.20;3.90;96643.00;;;;5072118;28;20441;-80
2022/03/12 03:34:32;;;;;;;4.80;3.13;;;4.00;42.20;3.80;96645.00;;;;5072223;28;20516;-80
2022/03/12 03:37:01;;;;;;;3.57;3.20;;;4.00;42.20;3.80;96651.00;;;;5073645;28;20532;-80
2022/03/12 03:39:28;;;;;;;3.53;3.10;;;4.00;42.20;3.80;96652.00;;;;5073201;28;21049;-80
2022/03/12 03:41:55;;;;;;;3.20;2.93;;;4.00;42.40;3.80;96656.00;;;;5074361;28;21193;-80
2022/03/12 03:44:28;;;;;;;3.83;2.77;;;4.00;42.40;3.80;96648.00;;;;5073601;28;20497;-80
2022/03/12 03:46:57;;;;;;;5.07;3.57;;;3.90;42.40;3.80;96647.00;;;;5073980;28;20506;-80
2022/03/12 03:49:25;;;;;;;3.47;3.00;;;3.90;42.60;3.70;96652.00;;;;5073227;28;20525;-80
2022/03/12 03:51:56;;;;;;;3.83;3.20;;;3.90;42.60;3.70;96648.00;;;;5059327;28;20445;-80
2022/03/12 03:54:23;;;;;;;3.13;2.83;;;3.90;42.60;3.70;96641.00;;;;5073797;28;20549;-80
2022/03/12 03:56:50;;;;;;;4.97;3.37;;;3.90;42.60;3.70;96651.00;;;;5074734;28;20458;-80
2022/03/12 03:59:18;;;;;;;5.03;3.20;;;3.90;42.60;3.70;96657.00;;;;5073258;28;20449;-80
2022/03/12 04:01:47;;;;;;;3.27;2.97;;;3.90;42.40;3.60;96655.00;;;;5072524;28;20564;-80
2022/03/12 04:04:15;;;;;;;3.33;2.90;;;3.90;42.30;3.70;96646.00;;;;5072812;28;20477;-80
2022/03/12 04:06:45;;;;;;;3.97;3.07;;;3.80;42.30;3.60;96651.00;;;;5074123;28;20525;-81
2022/03/12 04:09:13;;;;;;;3.50;3.10;;;3.80;42.20;3.60;96652.00;;;;5073418;28;20477;-80
2022/03/12 04:11:42;;;;;;;4.43;3.50;;;3.80;42.20;3.50;96638.00;;;;5073680;28;20529;-80
2022/03/12 04:14:10;;;;;;;4.20;3.47;;;3.80;42.10;3.50;96648.00;;;;5073424;28;21008;-80
2022/03/12 04:16:38;;;;;;;3.97;3.33;;;3.70;42.30;3.50;96642.00;;;;5073962;28;20523;-80
2022/03/12 04:19:05;;;;;;;3.90;3.13;;;3.70;42.40;3.40;96646.00;;;;5072056;28;21139;-80
2022/03/12 04:21:34;;;;;;;4.60;3.27;;;3.70;42.50;3.40;96644.00;;;;5075882;28;20482;-81
2022/03/12 04:24:02;;;;;;;4.03;2.97;;;3.70;42.80;3.40;96645.00;;;;5070008;28;20460;-80
2022/03/12 04:26:35;;;;;;;3.67;3.30;;;3.70;42.90;3.40;96636.00;;;;5071306;28;20438;-81
2022/03/12 04:29:02;;;;;;;3.83;3.27;;;3.60;43.10;3.30;96645.00;;;;5072018;28;20449;-81
2022/03/12 04:31:30;;;;;;;4.40;3.27;;;3.60;43.30;3.30;96643.00;;;;5065651;28;20522;-84
2022/03/12 04:33:59;;;;;;;3.50;3.20;;;3.50;43.50;3.30;96649.00;;;;5066700;28;20896;-82
2022/03/12 04:36:26;;;;;;;2.90;2.60;;;3.50;43.60;3.40;96649.00;;;;5074060;28;20430;-81
2022/03/12 04:38:55;;;;;;;4.33;3.47;;;3.50;43.70;3.40;96654.00;;;;5073027;28;20915;-82
2022/03/12 04:41:22;;;;;;;5.87;3.70;;;3.50;43.80;3.40;96646.00;;;;5072023;28;20934;-82
2022/03/12 04:43:50;;;;;;;4.60;3.80;;;3.50;43.80;3.40;96653.00;;;;5071075;28;20589;-82
2022/03/12 04:46:18;;;;;;;3.60;3.30;;;3.50;44.00;3.40;96645.00;;;;5071439;28;20423;-82
2022/03/12 04:48:45;;;;;;;5.20;3.40;;;3.50;44.00;3.40;96645.00;;;;5073935;28;20487;-82
2022/03/12 04:51:12;;;;;;;4.30;3.53;;;3.50;44.10;3.40;96654.00;;;;5074153;28;20478;-82
2022/03/12 04:53:39;;;;;;;3.30;3.00;;;3.30;44.10;3.40;96655.00;;;;5073753;28;20978;-82
2022/03/12 04:56:09;;;;;;;3.60;3.30;;;3.40;44.20;3.40;96654.00;;;;5073578;28;20500;-82
2022/03/12 04:58:36;;;;;;;3.33;3.03;;;3.40;44.20;3.40;96652.00;;;;5075947;28;20478;-82
2022/03/12 05:01:07;;;;;;;3.80;3.40;;;3.40;44.30;3.40;96656.00;;;;5080459;28;20517;-82
2022/03/12 05:03:34;;;;;;;4.53;3.10;;;3.40;44.40;3.40;96644.00;;;;5086276;28;20462;-81
2022/03/12 05:06:03;;;;;;;4.27;3.13;;;3.40;44.30;3.30;96648.00;;;;5079475;28;20457;-82
2022/03/12 05:08:35;;;;;;;4.27;3.33;;;3.40;44.40;3.30;96656.00;;;;5084161;28;20448;-82
2022/03/12 05:11:02;;;;;;;3.50;3.20;;;3.40;44.40;3.30;96657.00;;;;5090715;28;21164;-82
2022/03/12 05:13:31;;;;;;;3.90;3.47;;;3.40;44.50;3.30;96665.00;;;;5094006;28;20488;-81
2022/03/12 05:16:05;;;;;;;3.80;3.00;;;3.40;45.10;3.30;96654.00;;;;5096503;28;20476;-82
2022/03/12 05:18:36;;;;;;;3.43;3.13;;;3.40;44.60;3.30;96665.00;;;;5095770;28;20472;-82
2022/03/12 05:21:03;;;;;;;4.60;3.60;;;3.40;44.60;3.30;96665.00;;;;5095267;28;20505;-82
2022/03/12 05:23:30;;;;;;;4.47;3.23;;;3.30;45.10;3.30;96677.00;;;;5096069;28;20548;-82
2022/03/12 05:25:57;;;;;;;4.03;3.63;;;3.30;44.50;3.20;96679.00;;;;5096400;28;20425;-82
2022/03/12 05:28:30;;;;;;;4.00;3.37;;;3.30;44.60;3.20;96684.00;;;;5096098;28;20540;-82
2022/03/12 05:31:03;;;;;;;3.53;3.23;;;3.30;44.50;3.20;96674.00;;;;5112276;22;20483;-90
2022/03/12 05:33:30;;;;;;;4.03;3.30;;;3.30;44.60;3.20;96678.00;;;;5052385;28;20424;-87
2022/03/12 05:35:58;;;;;;;3.67;3.27;;;3.30;44.70;3.20;96680.00;;;;5046398;28;20434;-88
2022/03/12 05:38:27;;;;;;;3.70;3.40;;;3.40;44.80;3.20;96680.00;;;;5033134;28;20985;-88
2022/03/12 05:40:55;;;;;;;5.10;3.73;;;3.30;44.80;3.20;96675.00;;;;5032936;28;20506;-87
2022/03/12 05:43:22;;;;;;;3.37;3.07;;;3.30;44.80;3.20;96692.00;;;;5062450;28;20441;-88
2022/03/12 05:45:51;;;;;;;6.17;3.33;;;3.30;44.70;3.20;96688.00;;;;5060365;28;20431;-87
2022/03/12 05:48:21;;;;;;;4.10;3.23;;;3.30;44.80;3.30;96687.00;;;;5067601;28;20445;-89
2022/03/12 05:50:50;;;;;;;3.50;3.20;;;3.30;44.90;3.30;96690.00;;;;5063894;28;20870;-88
2022/03/12 05:53:19;;;;;;;3.30;3.00;;;3.30;44.80;3.30;96685.00;;;;5045088;28;20565;-87
2022/03/12 05:55:47;;;;;;;3.53;3.10;;;3.40;44.80;3.30;96692.00;;;;5043605;28;20474;-88
2022/03/12 05:58:19;;;;;;;4.27;3.07;;;3.80;44.90;3.30;96691.00;;;;5036788;28;20498;-88
2022/03/12 06:00:47;;;;;;;4.67;3.70;;;3.40;44.80;3.30;96696.00;;;;5031793;28;20475;-87
2022/03/12 06:03:14;;;;;;;3.53;3.23;;;3.40;44.90;3.30;96699.00;;;;5031980;28;20436;-87
2022/03/12 06:05:45;;;;;;;5.23;3.77;;;3.40;44.80;3.30;96698.00;;;;5031691;28;20440;-87
2022/03/12 06:08:21;;;;;;;5.67;3.77;;;3.40;44.90;3.30;96701.00;;;;5032037;28;20427;-86
2022/03/12 06:10:51;;;;;;;3.60;3.30;;;3.40;44.90;3.40;96693.00;;;;5035225;28;20451;-87
2022/03/12 06:13:19;;;;;;;4.27;3.50;;;3.40;45.00;3.40;96701.00;;;;5035623;28;20894;-88
2022/03/12 06:15:48;;;;;;;3.70;3.40;;;3.40;45.00;3.40;96700.00;;;;5035019;28;20442;-88
2022/03/12 06:18:15;;;;;;;4.17;3.40;;;3.40;44.80;3.40;96708.00;;;;5035916;28;20432;-86
2022/03/12 06:20:44;;;;;;;4.27;3.40;;;3.40;44.80;3.40;96709.00;;;;5035342;28;20487;-86
2022/03/12 06:23:11;;;;;;;3.80;3.50;;;3.40;44.90;3.50;96713.00;;;;5040442;28;20807;-87
2022/03/12 06:25:38;;;;;;;4.23;3.37;;;3.50;45.00;3.50;96713.00;;;;5054872;28;20461;-87
2022/03/12 06:28:07;;;;;;;3.90;3.20;;;3.50;44.90;3.50;96724.00;;;;5055288;28;20445;-88
2022/03/12 06:30:34;;;;;;;4.33;3.03;;;3.50;44.80;3.60;96716.00;;;;5055491;28;20877;-87
2022/03/12 06:33:04;;;;;;;3.37;3.07;;;3.60;44.70;3.60;96724.00;;;;5055261;28;20455;-87
2022/03/12 06:35:31;;;;;;;4.33;3.17;;;5.20;45.50;3.60;96727.00;;;;5055060;28;20478;-89
2022/03/12 06:37:59;;;;;;;3.97;3.30;;;3.60;44.80;3.70;96720.00;;;;5055082;28;20439;-88
2022/03/12 06:40:28;;;;;;;3.97;3.57;;;4.70;45.60;3.70;96729.00;;;;5055179;28;20449;-89
2022/03/12 06:42:59;;;;;;;3.80;3.43;;;3.70;44.90;3.80;96742.00;;;;5055356;28;20465;-89
2022/03/12 06:45:28;;;;;;;4.73;3.57;;;3.70;44.80;3.80;96749.00;;;;5054668;28;20457;-88
2022/03/12 06:47:56;;;;;;;4.00;3.20;;;3.80;44.80;3.90;96736.00;;;;5055149;28;20821;-88
2022/03/12 06:50:26;;;;;;;4.43;3.40;;;3.80;44.70;3.90;96740.00;;;;5054966;28;20521;-89
2022/03/12 06:52:54;;;;;;;4.20;3.60;;;3.90;44.80;4.00;96752.00;;;;5051756;28;21017;-88
2022/03/12 06:55:26;;;;;;;4.07;3.67;;;3.90;44.60;4.10;96756.00;;;;5034647;28;20789;-89
2022/03/12 06:57:54;;;;;;;4.70;3.37;;;4.00;44.50;4.10;96751.00;;;;5035560;28;20412;-89
2022/03/12 07:00:25;;;;;;;5.10;3.20;;;4.00;44.40;4.20;96757.00;;;;5034683;28;20882;-88
2022/03/12 07:02:52;;;;;;;4.03;3.60;;;5.10;45.00;4.30;96749.00;;;;5034295;28;20542;-89
2022/03/12 07:05:20;;;;;;;3.40;3.10;;;5.20;44.90;4.30;96767.00;;;;5034852;28;20437;-89
2022/03/12 07:07:47;;;;;;;4.20;3.77;;;6.00;45.20;4.40;96766.00;;;;5035031;28;20213;-88
2022/03/12 07:10:15;;;;;;;3.10;2.90;;;5.90;44.90;4.50;96757.00;;;;5034578;28;20471;-89
2022/03/12 07:12:44;;;;;;;3.80;3.33;;;4.40;44.00;4.50;96767.00;;;;5034823;28;20885;-89
2022/03/12 07:15:12;;;;;;;3.30;3.00;;;4.90;44.30;4.60;96762.00;;;;5034906;28;20547;-87
2022/03/12 07:17:40;;;;;;;3.70;3.40;;;4.50;44.00;4.60;96767.00;;;;5034856;28;20440;-87
2022/03/12 07:20:09;;;;;;;3.93;3.23;;;4.50;44.00;4.70;96761.00;;;;5034400;28;20877;-89
2022/03/12 07:22:38;;;;;;;4.60;3.57;;;4.60;44.00;4.80;96775.00;;;;5034663;28;20495;-89
2022/03/12 07:25:08;;;;;;;4.13;3.20;;;4.60;43.90;4.90;96759.00;;;;5054402;28;20554;-90
2022/03/12 07:27:35;;;;;;;3.73;3.30;;;4.70;43.70;4.90;96776.00;;;;5054434;28;20519;-89
2022/03/12 07:30:04;;;;;;;3.50;3.20;;;4.80;43.60;5.00;96773.00;;;;5046002;28;20197;-90
2022/03/12 07:32:31;;;;;;;4.23;3.07;;;4.80;43.50;5.00;96776.00;;;;5054228;28;20232;-87
2022/03/12 07:34:58;;;;;;;3.63;3.07;;;4.90;43.60;5.10;96777.00;;;;5054104;28;20196;-87
2022/03/12 07:37:25;;;;;;;3.83;3.07;;;4.90;43.50;5.10;96765.00;;;;5054144;28;20200;-88
2022/03/12 07:39:52;;;;;;;3.33;3.03;;;6.10;44.00;5.20;96777.00;;;;5053958;28;20446;-87
2022/03/12 07:42:19;;;;;;;3.57;3.27;;;5.90;43.80;5.20;96777.00;;;;5053594;28;20228;-89
2022/03/12 07:44:46;;;;;;;3.47;3.17;;;6.00;43.70;5.30;96779.00;;;;5053532;28;20581;-89
2022/03/12 07:47:15;;;;;;;3.70;3.37;;;5.20;43.20;5.30;96773.00;;;;5053821;28;20548;-88
2022/03/12 07:49:42;;;;;;;3.73;3.30;;;6.40;43.80;5.40;96773.00;;;;5053379;28;20291;-88
2022/03/12 07:52:10;;;;;;;4.63;3.30;;;6.70;44.00;5.50;96767.00;;;;5053507;28;20221;-87
2022/03/12 07:54:37;;;;;;;3.97;3.10;;;5.50;43.40;5.60;96785.00;;;;5036193;28;20231;-88
2022/03/12 07:57:05;;;;;;;3.93;3.20;;;5.40;43.40;5.70;96783.00;;;;5033074;28;20193;-87
2022/03/12 07:59:34;;;;;;;3.37;3.07;;;5.50;43.40;5.80;96784.00;;;;5033688;28;20201;-85
2022/03/12 08:02:02;;;;;;;4.80;3.07;;;5.60;43.40;6.00;96779.00;;;;5033050;28;20233;-88
2022/03/12 08:04:33;;;;;;;2.83;2.63;;;5.70;44.10;6.10;96774.00;;;;5033379;28;20204;-88
2022/03/12 08:07:02;;;;;;;4.93;3.60;;;5.80;43.50;6.30;96779.00;;;;5033355;28;20261;-88
2022/03/12 08:09:29;;;;;;;3.57;3.23;;;6.00;43.50;6.50;96777.00;;;;5033063;28;20201;-89
2022/03/12 08:11:57;;;;;;;4.50;3.23;;;6.10;43.40;6.70;96780.00;;;;5033164;28;20229;-86
2022/03/12 08:14:25;;;;;;;4.53;3.20;;;6.20;43.40;6.80;96776.00;;;;5033266;28;20201;-88
2022/03/12 08:16:53;;;;;;;3.63;3.23;;;6.40;43.50;7.00;96768.00;;;;5032918;28;20247;-87
2022/03/12 08:19:21;;;;;;;3.23;2.93;;;6.80;43.70;7.20;96777.00;;;;5033173;28;20201;-88
2022/03/12 08:21:52;;;;;;;3.43;3.10;;;7.50;44.30;7.40;96788.00;;;;5032659;28;20233;-87
2022/03/12 08:24:21;;;;;;;3.20;2.90;;;6.90;43.90;7.60;96786.00;;;;5047635;28;20300;-87
2022/03/12 08:26:50;;;;;;;5.97;3.37;;;7.00;43.10;7.80;96793.00;;;;5052739;28;20206;-86
2022/03/12 08:29:19;;;;;;;3.67;3.37;;;7.20;43.00;7.90;96799.00;;;;5052813;28;20204;-87
2022/03/12 08:31:47;;;;;;;3.80;3.10;;;7.40;42.90;8.10;96794.00;;;;5052115;28;20232;-88
2022/03/12 08:34:18;;;;;;;3.67;3.30;;;8.50;43.20;8.30;96803.00;;;;5051771;28;20204;-87
2022/03/12 08:36:45;;;;;;;3.47;3.17;;;7.70;42.60;8.50;96799.00;;;;5052318;28;20177;-87
2022/03/12 08:39:15;;;;;;;3.80;3.37;;;7.90;42.50;8.70;96800.00;;;;5052712;28;20203;-88
2022/03/12 08:41:42;;;;;;;4.70;3.93;;;8.10;42.40;8.90;96807.00;;;;5052207;28;20220;-88
2022/03/12 08:44:10;;;;;;;5.93;3.33;;;8.40;42.20;9.10;96808.00;;;;5052489;28;20254;-87
2022/03/12 08:46:42;;;;;;;3.70;3.40;;;8.40;42.00;9.30;96808.00;;;;5052594;28;20204;-87
2022/03/12 08:49:09;;;;;;;4.57;3.40;;;8.60;41.90;9.60;96813.00;;;;5052917;28;20227;-87
2022/03/12 08:51:38;;;;;;;3.77;3.20;;;8.80;41.60;9.80;96812.00;;;;5053438;28;20217;-87
2022/03/12 08:54:06;;;;;;;3.17;2.87;;;8.90;41.70;10.00;96813.00;;;;5053408;28;20200;-88
2022/03/12 08:56:35;;;;;;;4.37;3.70;;;9.10;41.60;10.30;96811.00;;;;5051980;28;20201;-88
2022/03/12 08:59:02;;;;;;;4.63;3.50;;;9.40;41.50;10.60;96818.00;;;;5052013;28;20207;-88
2022/03/12 09:01:29;;;;;;;3.87;3.37;;;9.60;41.60;10.90;96818.00;;;;5051768;28;20231;-87
2022/03/12 09:03:57;;;;;;;9.70;3.83;;;9.90;41.70;11.20;96824.00;;;;5051918;28;20778;-87
2022/03/12 09:06:27;;;;;;;4.83;3.80;;;10.20;41.60;11.50;96823.00;;;;5051895;28;20579;-88
2022/03/12 09:08:55;;;;;;;4.90;4.20;;;10.50;40.70;11.80;96824.00;;;;5051868;28;20196;-88
2022/03/12 09:11:23;;;;;;;4.07;3.67;;;10.80;40.80;12.10;96828.00;;;;5052048;28;20212;-89
2022/03/12 09:13:52;;;;;;;4.33;3.90;;;11.30;40.90;12.40;96834.00;;;;5051807;28;20203;-88
2022/03/12 09:16:19;;;;;;;4.13;3.53;;;11.70;40.60;12.70;96838.00;;;;5051365;28;20197;-87
2022/03/12 09:18:46;;;;;;;4.40;3.73;;;12.40;40.80;13.00;96839.00;;;;5051979;28;20196;-88
2022/03/12 09:21:14;;;;;;;3.70;3.40;;;12.70;40.80;13.30;96840.00;;;;5051337;28;20729;-88
2022/03/12 09:23:41;;;;;;;5.07;3.90;;;13.20;40.10;13.50;96831.00;;;;5051587;28;20670;-87
2022/03/12 09:26:12;;;;;;;4.53;3.60;;;13.70;39.10;13.80;96831.00;;;;5050877;28;20198;-87
2022/03/12 09:28:39;;;;;;;4.17;3.77;;;14.10;38.80;14.00;96830.00;;;;5051915;28;20211;-88
2022/03/12 09:31:09;;;;;;;4.83;4.33;;;14.50;38.50;14.20;96840.00;;;;5052099;28;20232;-88
2022/03/12 09:33:38;;;;;;;4.10;3.70;;;14.90;37.50;14.40;96837.00;;;;5051969;28;20295;-88
2022/03/12 09:36:09;;;;;;;4.23;3.70;;;15.20;37.40;14.60;96839.00;;;;5051821;28;20220;-88
2022/03/12 09:38:37;;;;;;;5.13;4.20;;;15.50;36.40;14.80;96838.00;;;;5051653;28;20201;-87
2022/03/12 09:41:04;;;;;;;4.00;3.60;;;15.70;36.00;15.00;96846.00;;;;5052148;28;20251;-88
2022/03/12 09:43:32;;;;;;;4.73;4.33;;;15.80;35.50;15.10;96841.00;;;;5051634;28;20225;-88
2022/03/12 09:46:17;;;;;;;6.43;4.63;;;15.90;34.90;15.30;96843.00;;;;5055657;28;20278;-87
2022/03/12 09:48:44;;;;;;;4.30;3.80;;;16.00;34.30;15.40;96838.00;;;;5055686;28;20246;-88
2022/03/12 09:51:15;;;;;;;4.40;4.00;;;16.00;34.50;15.50;96840.00;;;;5055297;28;20291;-88
2022/03/12 09:53:42;;;;;;;5.10;4.60;;;16.00;34.40;15.60;96839.00;;;;5055469;28;20204;-88
2022/03/12 09:56:10;;;;;;;5.87;4.27;;;16.00;34.20;15.70;96836.00;;;;5055335;28;20912;-88
2022/03/12 09:58:37;;;;;;;5.53;4.50;;;16.00;34.30;15.80;96839.00;;;;5056107;28;20200;-88
2022/03/12 10:01:04;;;;;;;5.30;4.40;;;15.90;33.70;15.80;96830.00;;;;5055056;28;20764;-87
2022/03/12 10:03:33;;;;;;;5.30;4.07;;;15.90;34.10;15.80;96824.00;;;;5055090;28;20270;-88
2022/03/12 10:06:00;;;;;;;5.07;4.40;;;15.80;33.40;15.90;96825.00;;;;5055227;28;20232;-88
2022/03/12 10:08:27;;;;;;;6.17;4.93;;;15.80;34.30;15.90;96823.00;;;;5055128;28;20287;-87
2022/03/12 10:10:55;;;;;;;4.80;4.30;;;15.90;34.10;15.90;96824.00;;;;5055197;28;20216;-88
2022/03/12 10:13:22;;;;;;;5.33;4.47;;;15.90;34.50;15.90;96828.00;;;;5055046;28;20666;-88
2022/03/12 10:15:49;;;;;;;5.57;4.73;;;16.00;34.30;16.00;96824.00;;;;5054910;28;20192;-88
2022/03/12 10:18:16;;;;;;;6.10;4.97;;;16.10;34.60;16.00;96828.00;;;;5055076;28;20196;-88
2022/03/12 10:20:48;;;;;;;5.37;4.43;;;16.30;34.50;16.10;96825.00;;;;5054849;28;20207;-88
2022/03/12 10:23:15;;;;;;;5.00;4.17;;;16.60;34.60;16.20;96824.00;;;;5055116;28;20255;-88
2022/03/12 10:25:42;;;;;;;5.00;4.50;;;16.80;34.70;16.30;96828.00;;;;5054703;28;20260;-88
2022/03/12 10:28:10;;;;;;;5.83;5.17;;;16.90;34.10;16.40;96824.00;;;;5054473;28;20737;-88
2022/03/12 10:30:37;;;;;;;4.70;4.20;;;17.20;34.30;16.50;96820.00;;;;5054600;28;20207;-88
2022/03/12 10:33:05;;;;;;;5.67;4.60;;;17.30;34.10;16.60;96826.00;;;;5054612;28;20292;-88
2022/03/12 10:35:36;;;;;;;4.53;4.10;;;17.60;34.10;16.80;96823.00;;;;5054728;28;20203;-88
2022/03/12 10:38:12;;;;;;;6.50;5.03;;;17.90;34.00;16.90;96817.00;;;;5054900;28;20216;-88
2022/03/12 10:40:39;;;;;;;6.10;5.33;;;18.10;33.70;17.10;96813.00;;;;5055255;28;20206;-88
2022/03/12 10:43:14;;;;;;;5.57;4.67;;;18.30;32.70;17.20;96813.00;;;;5054475;28;20220;-88
2022/03/12 10:45:46;;;;;;;6.03;5.23;;;18.50;32.80;17.30;96813.00;;;;5054558;28;20224;-88
2022/03/12 10:48:19;;;;;;;6.40;5.17;;;18.60;32.10;17.30;96811.00;;;;5054804;28;20247;-87
2022/03/12 10:50:52;;;;;;;5.83;5.27;;;18.70;32.40;17.40;96817.00;;;;5054396;28;20204;-88
2022/03/12 10:53:22;;;;;;;5.90;4.73;;;18.80;32.50;17.50;96807.00;;;;5054478;28;20296;-88
2022/03/12 10:55:51;;;;;;;7.07;6.20;;;18.90;32.40;17.60;96813.00;;;;5053439;28;20563;-88
2022/03/12 10:58:23;;;;;;;6.17;5.33;;;18.90;31.10;17.50;96807.00;;;;5055260;28;20204;-87
2022/03/12 11:00:53;;;;;;;5.90;4.50;;;18.80;31.30;17.50;96813.00;;;;5054716;28;20197;-88
2022/03/12 11:03:22;;;;;;;5.00;4.50;;;18.60;31.60;17.50;96815.00;;;;5054727;28;20226;-87
2022/03/12 11:05:52;;;;;;;6.17;5.27;;;18.50;31.70;17.50;96808.00;;;;5053804;28;20563;-88
2022/03/12 11:08:23;;;;;;;6.70;5.13;;;18.30;32.30;17.50;96803.00;;;;5054330;28;20258;-88
2022/03/12 11:10:57;;;;;;;7.60;6.20;;;18.10;31.80;17.40;96798.00;;;;5054241;28;20197;-88
2022/03/12 11:13:39;;;;;;;6.23;5.57;;;17.90;31.40;17.30;96798.00;;;;5054571;28;20201;-87